sensor_id;sensor_type;location;lat;lon;timestamp;pressure;altitude;pressure_sealevel;temperature;humidity
34979;BME280;21185;50.978;13.720;2022-08-19T00:03:29;97525.50;;;24.15;61.71
34979;BME280;21185;50.978;13.720;2022-08-19T00:08:31;97544.59;;;24.12;61.83
34979;BME280;21185;50.978;13.720;2022-08-19T00:13:33;97548.03;;;24.08;62.25
34979;BME280;21185;50.978;13.720;2022-08-19T00:18:35;97541.16;;;24.02;62.50
34979;BME280;21185;50.978;13.720;2022-08-19T00:23:37;97547.78;;;23.99;62.46
34979;BME280;21185;50.978;13.720;2022-08-19T00:28:39;97566.06;;;23.96;62.92
34979;BME280;21185;50.978;13.720;2022-08-19T00:33:41;97557.59;;;23.99;62.41
34979;BME280;21185;50.978;13.720;2022-08-19T00:38:44;97554.16;;;23.98;62.52
34979;BME280;21185;50.978;13.720;2022-08-19T00:44:01;97553.09;;;23.94;62.99
34979;BME280;21185;50.978;13.720;2022-08-19T00:49:21;97551.75;;;23.92;63.26
34979;BME280;21185;50.978;13.720;2022-08-19T00:54:30;97559.72;;;23.86;63.29
34979;BME280;21185;50.978;13.720;2022-08-19T00:59:35;97551.75;;;23.86;63.27
34979;BME280;21185;50.978;13.720;2022-08-19T01:05:02;97542.75;;;23.82;63.99
34979;BME280;21185;50.978;13.720;2022-08-19T01:10:10;97559.44;;;23.78;63.82
34979;BME280;21185;50.978;13.720;2022-08-19T01:15:17;97550.69;;;23.72;64.17
34979;BME280;21185;50.978;13.720;2022-08-19T01:20:22;97568.97;;;23.69;64.75
34979;BME280;21185;50.978;13.720;2022-08-19T01:25:36;97591.22;;;23.68;64.89
34979;BME280;21185;50.978;13.720;2022-08-19T01:30:41;97588.03;;;23.66;64.80
34979;BME280;21185;50.978;13.720;2022-08-19T01:35:52;97568.44;;;23.62;64.98
34979;BME280;21185;50.978;13.720;2022-08-19T01:40:54;97559.69;;;23.56;65.22
34979;BME280;21185;50.978;13.720;2022-08-19T01:45:56;97582.72;;;23.55;65.49
34979;BME280;21185;50.978;13.720;2022-08-19T01:50:58;97575.03;;;23.54;65.79
34979;BME280;21185;50.978;13.720;2022-08-19T01:56:01;97587.22;;;23.55;65.43
34979;BME280;21185;50.978;13.720;2022-08-19T02:01:05;97569.47;;;23.55;65.77
34979;BME280;21185;50.978;13.720;2022-08-19T02:06:08;97542.19;;;23.55;65.60
34979;BME280;21185;50.978;13.720;2022-08-19T02:11:20;97527.09;;;23.55;65.95
34979;BME280;21185;50.978;13.720;2022-08-19T02:16:22;97557.03;;;23.56;65.78
34979;BME280;21185;50.978;13.720;2022-08-19T02:21:25;97588.81;;;23.61;65.88
34979;BME280;21185;50.978;13.720;2022-08-19T02:26:27;97579.53;;;23.58;65.88
34979;BME280;21185;50.978;13.720;2022-08-19T02:31:29;97576.38;;;23.56;66.22
34979;BME280;21185;50.978;13.720;2022-08-19T02:36:30;97567.09;;;23.54;66.47
34979;BME280;21185;50.978;13.720;2022-08-19T02:41:33;97559.69;;;23.56;66.17
34979;BME280;21185;50.978;13.720;2022-08-19T02:46:35;97548.03;;;23.57;66.45
34979;BME280;21185;50.978;13.720;2022-08-19T02:51:41;97546.97;;;23.58;66.24
34979;BME280;21185;50.978;13.720;2022-08-19T02:56:44;97568.16;;;23.58;66.28
34979;BME280;21185;50.978;13.720;2022-08-19T03:01:46;97572.41;;;23.59;66.24
34979;BME280;21185;50.978;13.720;2022-08-19T03:06:48;97571.59;;;23.58;66.43
34979;BME280;21185;50.978;13.720;2022-08-19T03:11:50;97575.03;;;23.59;66.71
34979;BME280;21185;50.978;13.720;2022-08-19T03:16:54;97569.75;;;23.59;66.81
34979;BME280;21185;50.978;13.720;2022-08-19T03:21:59;97573.72;;;23.62;66.82
34979;BME280;21185;50.978;13.720;2022-08-19T03:27:01;97581.13;;;23.60;66.91
34979;BME280;21185;50.978;13.720;2022-08-19T03:32:06;97577.69;;;23.59;67.01
34979;BME280;21185;50.978;13.720;2022-08-19T03:37:28;97579.53;;;23.58;66.51
34979;BME280;21185;50.978;13.720;2022-08-19T03:42:30;97595.16;;;23.55;66.87
34979;BME280;21185;50.978;13.720;2022-08-19T03:47:49;97600.94;;;23.52;67.18
34979;BME280;21185;50.978;13.720;2022-08-19T03:52:52;97589.31;;;23.53;67.28
34979;BME280;21185;50.978;13.720;2022-08-19T03:57:54;97584.53;;;23.50;67.22
34979;BME280;21185;50.978;13.720;2022-08-19T04:02:59;97585.31;;;23.45;67.58
34979;BME280;21185;50.978;13.720;2022-08-19T04:08:03;97585.56;;;23.44;67.51
34979;BME280;21185;50.978;13.720;2022-08-19T04:13:15;97578.16;;;23.41;67.73
34979;BME280;21185;50.978;13.720;2022-08-19T04:18:17;97570.19;;;23.36;68.12
34979;BME280;21185;50.978;13.720;2022-08-19T04:23:19;97565.44;;;23.33;68.13
34979;BME280;21185;50.978;13.720;2022-08-19T04:28:23;97580.78;;;23.36;68.08
34979;BME280;21185;50.978;13.720;2022-08-19T04:33:26;97574.97;;;23.39;68.17
34979;BME280;21185;50.978;13.720;2022-08-19T04:38:29;97582.66;;;23.40;68.05
34979;BME280;21185;50.978;13.720;2022-08-19T04:43:33;97589.28;;;23.43;68.22
34979;BME280;21185;50.978;13.720;2022-08-19T04:48:36;97591.41;;;23.41;68.17
34979;BME280;21185;50.978;13.720;2022-08-19T04:53:50;97588.47;;;23.37;67.89
34979;BME280;21185;50.978;13.720;2022-08-19T04:58:55;97574.44;;;23.32;68.54
34979;BME280;21185;50.978;13.720;2022-08-19T05:03:59;97576.28;;;23.31;68.59
34979;BME280;21185;50.978;13.720;2022-08-19T05:09:04;97590.81;;;23.29;68.54
34979;BME280;21185;50.978;13.720;2022-08-19T05:14:07;97590.53;;;23.20;68.92
34979;BME280;21185;50.978;13.720;2022-08-19T05:19:09;97616.72;;;23.16;68.78
34979;BME280;21185;50.978;13.720;2022-08-19T05:24:34;97630.47;;;23.13;69.31
34979;BME280;21185;50.978;13.720;2022-08-19T05:29:48;97632.59;;;23.11;68.97
34979;BME280;21185;50.978;13.720;2022-08-19T05:34:50;97644.75;;;23.12;69.13
34979;BME280;21185;50.978;13.720;2022-08-19T05:39:52;97660.13;;;23.15;69.41
34979;BME280;21185;50.978;13.720;2022-08-19T05:44:54;97657.44;;;23.10;69.35
34979;BME280;21185;50.978;13.720;2022-08-19T05:49:58;97670.91;;;23.04;69.82
34979;BME280;21185;50.978;13.720;2022-08-19T05:55:00;97675.63;;;22.97;69.68
34979;BME280;21185;50.978;13.720;2022-08-19T06:00:05;97692.03;;;22.93;70.32
34979;BME280;21185;50.978;13.720;2022-08-19T06:05:12;97702.06;;;22.91;70.16
34979;BME280;21185;50.978;13.720;2022-08-19T06:10:14;97720.03;;;22.89;70.25
34979;BME280;21185;50.978;13.720;2022-08-19T06:15:16;97732.19;;;22.85;70.57
34979;BME280;21185;50.978;13.720;2022-08-19T06:20:18;97743.81;;;22.84;70.43
34979;BME280;21185;50.978;13.720;2022-08-19T06:25:40;97754.13;;;22.86;70.37
34979;BME280;21185;50.978;13.720;2022-08-19T06:30:42;97748.31;;;22.84;70.19
34979;BME280;21185;50.978;13.720;2022-08-19T06:35:44;97756.50;;;22.82;70.41
34979;BME280;21185;50.978;13.720;2022-08-19T06:40:46;97759.94;;;22.83;70.40
34979;BME280;21185;50.978;13.720;2022-08-19T06:45:48;97772.66;;;22.86;70.33
34979;BME280;21185;50.978;13.720;2022-08-19T06:50:54;97781.19;;;22.93;70.49
34979;BME280;21185;50.978;13.720;2022-08-19T06:55:56;97791.00;;;22.98;70.42
34979;BME280;21185;50.978;13.720;2022-08-19T07:01:03;97777.53;;;22.99;70.03
34979;BME280;21185;50.978;13.720;2022-08-19T07:06:13;97769.03;;;22.97;70.26
34979;BME280;21185;50.978;13.720;2022-08-19T07:11:37;97763.19;;;22.95;70.46
34979;BME280;21185;50.978;13.720;2022-08-19T07:16:38;97781.72;;;22.95;70.47
34979;BME280;21185;50.978;13.720;2022-08-19T07:21:45;97793.91;;;22.96;70.71
34979;BME280;21185;50.978;13.720;2022-08-19T07:26:48;97800.78;;;22.97;70.75
34979;BME280;21185;50.978;13.720;2022-08-19T07:31:53;97789.13;;;22.93;70.56
34979;BME280;21185;50.978;13.720;2022-08-19T07:36:57;97796.50;;;22.91;70.98
34979;BME280;21185;50.978;13.720;2022-08-19T07:42:03;97802.84;;;22.90;70.86
34979;BME280;21185;50.978;13.720;2022-08-19T07:47:08;97796.47;;;22.86;70.98
34979;BME280;21185;50.978;13.720;2022-08-19T07:52:31;97799.06;;;22.81;71.36
34979;BME280;21185;50.978;13.720;2022-08-19T07:57:35;97797.94;;;22.77;71.85
34979;BME280;21185;50.978;13.720;2022-08-19T08:02:37;97801.09;;;22.74;71.79
34979;BME280;21185;50.978;13.720;2022-08-19T08:07:41;97809.56;;;22.76;71.85
34979;BME280;21185;50.978;13.720;2022-08-19T08:13:28;97820.69;;;22.78;72.10
34979;BME280;21185;50.978;13.720;2022-08-19T08:18:30;97807.47;;;22.78;72.50
34979;BME280;21185;50.978;13.720;2022-08-19T08:23:32;97818.06;;;22.78;72.10
34979;BME280;21185;50.978;13.720;2022-08-19T08:28:34;97819.09;;;22.77;72.10
34979;BME280;21185;50.978;13.720;2022-08-19T08:33:36;97820.16;;;22.76;72.28
34979;BME280;21185;50.978;13.720;2022-08-19T08:38:41;97833.63;;;22.74;72.57
34979;BME280;21185;50.978;13.720;2022-08-19T08:43:49;97827.84;;;22.77;72.68
34979;BME280;21185;50.978;13.720;2022-08-19T08:48:59;97829.75;;;22.82;72.87
34979;BME280;21185;50.978;13.720;2022-08-19T08:54:06;97838.16;;;22.79;73.35
34979;BME280;21185;50.978;13.720;2022-08-19T08:59:22;97835.78;;;22.77;73.50
34979;BME280;21185;50.978;13.720;2022-08-19T09:04:27;97840.25;;;22.77;73.35
34979;BME280;21185;50.978;13.720;2022-08-19T09:09:37;97848.53;;;22.80;73.27
34979;BME280;21185;50.978;13.720;2022-08-19T09:15:10;97850.91;;;22.82;73.30
34979;BME280;21185;50.978;13.720;2022-08-19T09:20:20;97840.88;;;22.84;73.27
34979;BME280;21185;50.978;13.720;2022-08-19T09:25:23;97830.84;;;22.86;73.06
34979;BME280;21185;50.978;13.720;2022-08-19T09:30:34;97816.88;;;22.90;73.20
34979;BME280;21185;50.978;13.720;2022-08-19T09:35:41;97824.81;;;22.90;73.03
34979;BME280;21185;50.978;13.720;2022-08-19T09:40:54;97818.16;;;22.88;73.80
34979;BME280;21185;50.978;13.720;2022-08-19T09:45:57;97800.50;;;22.93;73.95
34979;BME280;21185;50.978;13.720;2022-08-19T09:56:06;97819.00;;;23.25;73.57
34979;BME280;21185;50.978;13.720;2022-08-19T10:01:20;97826.44;;;23.34;73.87
34979;BME280;21185;50.978;13.720;2022-08-19T10:06:25;97807.38;;;23.32;73.82
34979;BME280;21185;50.978;13.720;2022-08-19T10:11:47;97821.69;;;23.36;73.43
34979;BME280;21185;50.978;13.720;2022-08-19T10:16:56;97831.78;;;23.39;73.79
34979;BME280;21185;50.978;13.720;2022-08-19T10:22:03;97843.50;;;23.48;73.56
34979;BME280;21185;50.978;13.720;2022-08-19T10:27:10;97848.09;;;23.57;73.27
34979;BME280;21185;50.978;13.720;2022-08-19T10:32:16;97845.53;;;23.78;73.37
34979;BME280;21185;50.978;13.720;2022-08-19T10:37:18;97844.78;;;23.82;73.07
34979;BME280;21185;50.978;13.720;2022-08-19T10:42:32;97840.25;;;23.78;73.02
34979;BME280;21185;50.978;13.720;2022-08-19T10:47:34;97857.94;;;23.67;72.91
34979;BME280;21185;50.978;13.720;2022-08-19T10:52:35;97859.03;;;23.71;72.79
34979;BME280;21185;50.978;13.720;2022-08-19T10:57:39;97861.50;;;23.93;73.02
34979;BME280;21185;50.978;13.720;2022-08-19T11:03:03;97867.94;;;24.07;72.34
34979;BME280;21185;50.978;13.720;2022-08-19T11:08:05;97873.25;;;24.12;72.60
34979;BME280;21185;50.978;13.720;2022-08-19T11:13:24;97881.16;;;24.02;72.21
34979;BME280;21185;50.978;13.720;2022-08-19T11:18:27;97880.88;;;23.94;71.97
34979;BME280;21185;50.978;13.720;2022-08-19T11:23:30;97883.00;;;23.97;72.03
34979;BME280;21185;50.978;13.720;2022-08-19T11:28:32;97885.72;;;24.12;71.70
34979;BME280;21185;50.978;13.720;2022-08-19T11:33:34;97891.03;;;24.12;71.78
34979;BME280;21185;50.978;13.720;2022-08-19T11:38:36;97883.84;;;24.07;71.74
34979;BME280;21185;50.978;13.720;2022-08-19T11:43:38;97882.50;;;24.05;71.36
34979;BME280;21185;50.978;13.720;2022-08-19T11:48:41;97884.06;;;24.01;71.54
34979;BME280;21185;50.978;13.720;2022-08-19T11:53:43;97890.97;;;24.02;71.58
34979;BME280;21185;50.978;13.720;2022-08-19T11:58:46;97881.16;;;24.02;71.61
34979;BME280;21185;50.978;13.720;2022-08-19T12:03:50;97876.72;;;24.13;71.42
34979;BME280;21185;50.978;13.720;2022-08-19T12:08:57;97891.03;;;24.12;70.87
34979;BME280;21185;50.978;13.720;2022-08-19T12:14:02;97888.59;;;24.00;71.12
34979;BME280;21185;50.978;13.720;2022-08-19T12:19:05;97895.19;;;23.98;71.34
34979;BME280;21185;50.978;13.720;2022-08-19T12:24:07;97906.88;;;24.02;71.00
34979;BME280;21185;50.978;13.720;2022-08-19T12:29:09;97901.56;;;24.02;70.96
34979;BME280;21185;50.978;13.720;2022-08-19T12:34:11;97904.19;;;23.97;70.84
34979;BME280;21185;50.978;13.720;2022-08-19T12:39:16;97907.91;;;23.96;71.33
34979;BME280;21185;50.978;13.720;2022-08-19T12:44:21;97906.31;;;23.95;71.00
34979;BME280;21185;50.978;13.720;2022-08-19T12:49:33;97909.78;;;24.00;71.12
34979;BME280;21185;50.978;13.720;2022-08-19T12:54:56;97908.72;;;24.01;70.81
34979;BME280;21185;50.978;13.720;2022-08-19T13:00:01;97908.19;;;23.99;70.58
34979;BME280;21185;50.978;13.720;2022-08-19T13:05:07;97908.19;;;23.99;70.42
34979;BME280;21185;50.978;13.720;2022-08-19T13:10:13;97906.84;;;23.97;70.71
34979;BME280;21185;50.978;13.720;2022-08-19T13:15:18;97901.56;;;23.97;70.51
34979;BME280;21185;50.978;13.720;2022-08-19T13:20:25;97905.00;;;23.97;70.61
34979;BME280;21185;50.978;13.720;2022-08-19T13:25:27;97906.84;;;23.97;70.68
34979;BME280;21185;50.978;13.720;2022-08-19T13:30:29;97911.31;;;23.91;70.68
34979;BME280;21185;50.978;13.720;2022-08-19T13:35:56;97905.41;;;23.74;70.45
34979;BME280;21185;50.978;13.720;2022-08-19T13:41:04;97900.31;;;23.67;70.71
34979;BME280;21185;50.978;13.720;2022-08-19T13:46:14;97895.53;;;23.64;70.66
34979;BME280;21185;50.978;13.720;2022-08-19T13:51:17;97892.91;;;23.69;70.43
34979;BME280;21185;50.978;13.720;2022-08-19T13:56:19;97904.53;;;23.63;70.58
34979;BME280;21185;50.978;13.720;2022-08-19T14:01:27;97902.03;;;23.51;70.60
34979;BME280;21185;50.978;13.720;2022-08-19T14:06:29;97913.06;;;23.38;71.14
34979;BME280;21185;50.978;13.720;2022-08-19T14:11:31;97917.97;;;23.24;71.21
34979;BME280;21185;50.978;13.720;2022-08-19T14:16:33;97906.81;;;23.17;71.77
34979;BME280;21185;50.978;13.720;2022-08-19T14:21:35;97918.91;;;23.08;71.62
34979;BME280;21185;50.978;13.720;2022-08-19T14:26:42;97914.59;;;23.02;72.18
34979;BME280;21185;50.978;13.720;2022-08-19T14:31:44;97910.41;;;23.06;71.80
34979;BME280;21185;50.978;13.720;2022-08-19T14:36:46;97914.50;;;23.19;71.91
34979;BME280;21185;50.978;13.720;2022-08-19T14:41:50;97912.47;;;23.31;72.05
34979;BME280;21185;50.978;13.720;2022-08-19T14:46:52;97923.94;;;23.42;71.74
34979;BME280;21185;50.978;13.720;2022-08-19T14:51:55;97926.13;;;23.50;71.46
34979;BME280;21185;50.978;13.720;2022-08-19T14:57:01;97925.63;;;23.53;71.67
34979;BME280;21185;50.978;13.720;2022-08-19T15:02:03;97910.53;;;23.53;71.30
34979;BME280;21185;50.978;13.720;2022-08-19T15:07:25;97919.53;;;23.52;71.69
34979;BME280;21185;50.978;13.720;2022-08-19T15:12:30;97913.94;;;23.49;71.22
34979;BME280;21185;50.978;13.720;2022-08-19T15:17:32;97932.19;;;23.45;71.19
34979;BME280;21185;50.978;13.720;2022-08-19T15:22:47;97937.72;;;23.44;71.24
34979;BME280;21185;50.978;13.720;2022-08-19T15:27:49;97927.94;;;23.44;71.08
34979;BME280;21185;50.978;13.720;2022-08-19T15:32:52;97925.03;;;23.46;71.30
34979;BME280;21185;50.978;13.720;2022-08-19T15:37:54;97909.16;;;23.46;71.23
34979;BME280;21185;50.978;13.720;2022-08-19T15:42:57;97897.75;;;23.45;71.22
34979;BME280;21185;50.978;13.720;2022-08-19T15:48:01;97888.47;;;23.43;71.17
34979;BME280;21185;50.978;13.720;2022-08-19T15:53:08;97883.75;;;23.50;70.71
34979;BME280;21185;50.978;13.720;2022-08-19T15:58:14;97873.44;;;23.53;70.82
34979;BME280;21185;50.978;13.720;2022-08-19T16:03:34;97877.47;;;23.56;70.68
34979;BME280;21185;50.978;13.720;2022-08-19T16:08:58;97889.91;;;23.55;70.57
34979;BME280;21185;50.978;13.720;2022-08-19T16:14:02;97896.75;;;23.51;70.57
34979;BME280;21185;50.978;13.720;2022-08-19T16:19:07;97891.16;;;23.48;70.57
34979;BME280;21185;50.978;13.720;2022-08-19T16:24:14;97889.53;;;23.42;70.63
34979;BME280;21185;50.978;13.720;2022-08-19T16:29:18;97889.22;;;23.38;70.32
34979;BME280;21185;50.978;13.720;2022-08-19T16:34:34;97877.28;;;23.36;70.23
34979;BME280;21185;50.978;13.720;2022-08-19T16:39:37;97868.25;;;23.32;70.17
34979;BME280;21185;50.978;13.720;2022-08-19T16:44:42;97854.53;;;23.35;70.54
34979;BME280;21185;50.978;13.720;2022-08-19T16:49:46;97846.31;;;23.36;70.45
34979;BME280;21185;50.978;13.720;2022-08-19T16:54:56;97867.78;;;23.40;70.38
34979;BME280;21185;50.978;13.720;2022-08-19T16:59:58;97858.81;;;23.41;70.49
34979;BME280;21185;50.978;13.720;2022-08-19T17:05:01;97852.97;;;23.39;70.31
34979;BME280;21185;50.978;13.720;2022-08-19T17:10:04;97866.19;;;23.39;70.11
34979;BME280;21185;50.978;13.720;2022-08-19T17:15:06;97895.81;;;23.36;70.23
34979;BME280;21185;50.978;13.720;2022-08-19T17:20:09;97893.69;;;23.33;70.04
34979;BME280;21185;50.978;13.720;2022-08-19T17:25:11;97884.91;;;23.27;70.23
34979;BME280;21185;50.978;13.720;2022-08-19T17:30:13;97892.81;;;23.22;70.07
34979;BME280;21185;50.978;13.720;2022-08-19T17:35:15;97880.88;;;23.19;70.43
34979;BME280;21185;50.978;13.720;2022-08-19T17:40:25;97887.78;;;23.20;70.41
34979;BME280;21185;50.978;13.720;2022-08-19T17:45:30;97884.81;;;23.17;70.16
34979;BME280;21185;50.978;13.720;2022-08-19T17:50:33;97906.75;;;23.12;70.14
34979;BME280;21185;50.978;13.720;2022-08-19T17:55:35;97937.16;;;23.10;70.42
34979;BME280;21185;50.978;13.720;2022-08-19T18:00:38;97935.56;;;23.09;70.12
34979;BME280;21185;50.978;13.720;2022-08-19T18:05:55;97942.16;;;23.06;70.34
34979;BME280;21185;50.978;13.720;2022-08-19T18:10:58;97963.84;;;23.03;70.47
34979;BME280;21185;50.978;13.720;2022-08-19T18:16:02;97973.88;;;23.01;70.19
34979;BME280;21185;50.978;13.720;2022-08-19T18:21:05;97989.19;;;22.99;70.14
34979;BME280;21185;50.978;13.720;2022-08-19T18:26:07;98001.38;;;23.00;70.14
34979;BME280;21185;50.978;13.720;2022-08-19T18:31:09;98005.56;;;22.96;70.46
34979;BME280;21185;50.978;13.720;2022-08-19T18:36:12;98009.75;;;22.92;70.56
34979;BME280;21185;50.978;13.720;2022-08-19T18:41:14;97985.38;;;22.90;70.47
34979;BME280;21185;50.978;13.720;2022-08-19T18:46:34;97987.00;;;22.91;70.54
34979;BME280;21185;50.978;13.720;2022-08-19T18:51:59;97976.41;;;22.91;70.66
34979;BME280;21185;50.978;13.720;2022-08-19T18:57:03;97989.88;;;22.89;70.63
34979;BME280;21185;50.978;13.720;2022-08-19T19:02:06;97985.38;;;22.90;70.45
34979;BME280;21185;50.978;13.720;2022-08-19T19:07:09;97994.38;;;22.89;70.91
34979;BME280;21185;50.978;13.720;2022-08-19T19:12:12;97984.28;;;22.86;70.55
34979;BME280;21185;50.978;13.720;2022-08-19T19:17:15;97981.09;;;22.84;70.66
34979;BME280;21185;50.978;13.720;2022-08-19T19:22:20;97980.78;;;22.80;70.63
34979;BME280;21185;50.978;13.720;2022-08-19T19:27:22;97982.06;;;22.78;70.60
34979;BME280;21185;50.978;13.720;2022-08-19T19:32:27;97978.84;;;22.76;70.72
34979;BME280;21185;50.978;13.720;2022-08-19T19:37:39;97989.13;;;22.72;70.60
34979;BME280;21185;50.978;13.720;2022-08-19T19:42:44;97983.53;;;22.69;71.02
34979;BME280;21185;50.978;13.720;2022-08-19T19:47:48;98001.97;;;22.63;70.64
34979;BME280;21185;50.978;13.720;2022-08-19T19:52:50;97976.53;;;22.57;70.73
34979;BME280;21185;50.978;13.720;2022-08-19T19:57:53;97957.47;;;22.55;70.77
34979;BME280;21185;50.978;13.720;2022-08-19T20:02:55;97966.19;;;22.56;70.69
34979;BME280;21185;50.978;13.720;2022-08-19T20:07:57;97960.59;;;22.52;71.01
34979;BME280;21185;50.978;13.720;2022-08-19T20:13:19;97986.97;;;22.47;70.62
34979;BME280;21185;50.978;13.720;2022-08-19T20:18:22;98024.47;;;22.44;70.71
34979;BME280;21185;50.978;13.720;2022-08-19T20:23:25;98001.25;;;22.46;71.07
34979;BME280;21185;50.978;13.720;2022-08-19T20:28:27;98009.16;;;22.46;70.64
34979;BME280;21185;50.978;13.720;2022-08-19T20:33:30;98002.28;;;22.45;71.07
34979;BME280;21185;50.978;13.720;2022-08-19T20:38:32;98005.41;;;22.42;70.99
34979;BME280;21185;50.978;13.720;2022-08-19T20:43:36;98005.66;;;22.41;71.02
34979;BME280;21185;50.978;13.720;2022-08-19T20:48:38;98006.94;;;22.38;70.57
34979;BME280;21185;50.978;13.720;2022-08-19T20:53:42;98009.03;;;22.36;70.60
34979;BME280;21185;50.978;13.720;2022-08-19T20:58:45;97992.13;;;22.37;70.56
34979;BME280;21185;50.978;13.720;2022-08-19T21:03:55;97986.34;;;22.40;70.84
34979;BME280;21185;50.978;13.720;2022-08-19T21:08:57;97995.09;;;22.41;70.95
34979;BME280;21185;50.978;13.720;2022-08-19T21:13:59;97995.34;;;22.39;70.69
34979;BME280;21185;50.978;13.720;2022-08-19T21:19:02;97994.22;;;22.35;70.54
34979;BME280;21185;50.978;13.720;2022-08-19T21:24:04;97991.03;;;22.33;70.89
34979;BME280;21185;50.978;13.720;2022-08-19T21:29:06;98009.03;;;22.36;70.55
34979;BME280;21185;50.978;13.720;2022-08-19T21:34:08;98002.69;;;22.37;70.88
34979;BME280;21185;50.978;13.720;2022-08-19T21:39:10;98011.69;;;22.36;70.74
34979;BME280;21185;50.978;13.720;2022-08-19T21:44:12;98008.47;;;22.34;70.90
34979;BME280;21185;50.978;13.720;2022-08-19T21:49:13;97998.72;;;22.35;70.71
34979;BME280;21185;50.978;13.720;2022-08-19T21:54:15;97983.09;;;22.33;70.97
34979;BME280;21185;50.978;13.720;2022-08-19T21:59:17;97983.56;;;22.30;70.89
34979;BME280;21185;50.978;13.720;2022-08-19T22:04:19;97988.31;;;22.28;70.78
34979;BME280;21185;50.978;13.720;2022-08-19T22:09:21;97980.63;;;22.26;70.77
34979;BME280;21185;50.978;13.720;2022-08-19T22:14:23;97993.28;;;22.24;71.10
34979;BME280;21185;50.978;13.720;2022-08-19T22:19:26;98003.06;;;22.24;70.83
34979;BME280;21185;50.978;13.720;2022-08-19T22:24:29;98010.97;;;22.24;70.76
34979;BME280;21185;50.978;13.720;2022-08-19T22:29:32;97995.13;;;22.24;71.01
34979;BME280;21185;50.978;13.720;2022-08-19T22:34:35;97988.00;;;22.24;70.82
34979;BME280;21185;50.978;13.720;2022-08-19T22:39:37;97998.81;;;22.23;70.89
34979;BME280;21185;50.978;13.720;2022-08-19T22:44:39;97994.56;;;22.22;71.11
34979;BME280;21185;50.978;13.720;2022-08-19T22:49:42;98005.94;;;22.22;71.34
34979;BME280;21185;50.978;13.720;2022-08-19T22:54:46;98011.47;;;22.21;70.99
34979;BME280;21185;50.978;13.720;2022-08-19T22:59:50;98000.09;;;22.20;71.30
34979;BME280;21185;50.978;13.720;2022-08-19T23:04:54;98004.59;;;22.20;71.27
34979;BME280;21185;50.978;13.720;2022-08-19T23:09:56;97993.22;;;22.19;71.10
34979;BME280;21185;50.978;13.720;2022-08-19T23:15:14;97986.56;;;22.17;71.50
34979;BME280;21185;50.978;13.720;2022-08-19T23:20:16;97989.16;;;22.12;71.35
34979;BME280;21185;50.978;13.720;2022-08-19T23:25:22;97988.03;;;22.08;71.27
34979;BME280;21185;50.978;13.720;2022-08-19T23:30:25;97982.44;;;22.04;71.29
34979;BME280;21185;50.978;13.720;2022-08-19T23:35:32;97990.00;;;22.01;71.91
34979;BME280;21185;50.978;13.720;2022-08-19T23:40:36;97993.63;;;21.94;72.00
34979;BME280;21185;50.978;13.720;2022-08-19T23:45:40;97981.44;;;21.93;71.60
34979;BME280;21185;50.978;13.720;2022-08-19T23:50:52;97988.34;;;21.94;71.72
34979;BME280;21185;50.978;13.720;2022-08-19T23:55:54;97986.97;;;21.92;72.19
